sensor_id;sensor_type;location;lat;lon;timestamp;P1;durP1;ratioP1;P2;durP2;ratioP2
6452;SDS011;3259;51.080;13.712;2023-05-07T00:02:00;3.13;;;2.72;;
6452;SDS011;3259;51.080;13.712;2023-05-07T00:04:50;2.47;;;2.10;;
6452;SDS011;3259;51.080;13.712;2023-05-07T00:07:40;2.50;;;2.40;;
6452;SDS011;3259;51.080;13.712;2023-05-07T00:10:28;2.53;;;2.33;;
6452;SDS011;3259;51.080;13.712;2023-05-07T00:13:17;2.78;;;2.58;;
6452;SDS011;3259;51.080;13.712;2023-05-07T00:16:06;2.42;;;2.22;;
6452;SDS011;3259;51.080;13.712;2023-05-07T00:18:58;2.78;;;2.58;;
6452;SDS011;3259;51.080;13.712;2023-05-07T00:21:48;2.40;;;2.15;;
6452;SDS011;3259;51.080;13.712;2023-05-07T00:24:37;2.95;;;2.65;;
6452;SDS011;3259;51.080;13.712;2023-05-07T00:27:25;2.92;;;2.47;;
6452;SDS011;3259;51.080;13.712;2023-05-07T00:30:14;3.55;;;2.45;;
6452;SDS011;3259;51.080;13.712;2023-05-07T00:33:03;2.47;;;2.25;;
6452;SDS011;3259;51.080;13.712;2023-05-07T00:35:52;2.95;;;2.75;;
6452;SDS011;3259;51.080;13.712;2023-05-07T00:38:46;3.50;;;3.20;;
6452;SDS011;3259;51.080;13.712;2023-05-07T00:41:34;2.67;;;2.47;;
6452;SDS011;3259;51.080;13.712;2023-05-07T00:44:23;2.72;;;2.53;;
6452;SDS011;3259;51.080;13.712;2023-05-07T00:47:16;3.15;;;2.95;;
6452;SDS011;3259;51.080;13.712;2023-05-07T00:50:05;2.42;;;2.22;;
6452;SDS011;3259;51.080;13.712;2023-05-07T00:52:56;3.00;;;2.80;;
6452;SDS011;3259;51.080;13.712;2023-05-07T00:55:47;2.58;;;2.47;;
6452;SDS011;3259;51.080;13.712;2023-05-07T00:58:36;3.08;;;2.72;;
6452;SDS011;3259;51.080;13.712;2023-05-07T01:01:25;3.08;;;2.88;;
6452;SDS011;3259;51.080;13.712;2023-05-07T01:04:14;3.05;;;2.85;;
6452;SDS011;3259;51.080;13.712;2023-05-07T01:07:03;3.15;;;2.85;;
6452;SDS011;3259;51.080;13.712;2023-05-07T01:09:53;2.90;;;2.65;;
6452;SDS011;3259;51.080;13.712;2023-05-07T01:12:43;2.95;;;2.70;;
6452;SDS011;3259;51.080;13.712;2023-05-07T01:15:33;2.58;;;2.38;;
6452;SDS011;3259;51.080;13.712;2023-05-07T01:18:22;2.95;;;2.75;;
6452;SDS011;3259;51.080;13.712;2023-05-07T01:21:12;3.67;;;3.38;;
6452;SDS011;3259;51.080;13.712;2023-05-07T01:24:06;2.72;;;2.53;;
6452;SDS011;3259;51.080;13.712;2023-05-07T01:26:55;3.15;;;2.80;;
6452;SDS011;3259;51.080;13.712;2023-05-07T01:29:44;3.40;;;3.10;;
6452;SDS011;3259;51.080;13.712;2023-05-07T01:32:35;3.33;;;3.03;;
6452;SDS011;3259;51.080;13.712;2023-05-07T01:35:29;2.65;;;2.45;;
6452;SDS011;3259;51.080;13.712;2023-05-07T01:38:20;2.72;;;2.53;;
6452;SDS011;3259;51.080;13.712;2023-05-07T01:44:03;3.83;;;3.33;;
6452;SDS011;3259;51.080;13.712;2023-05-07T01:46:55;2.70;;;2.53;;
6452;SDS011;3259;51.080;13.712;2023-05-07T01:49:46;4.00;;;2.85;;
6452;SDS011;3259;51.080;13.712;2023-05-07T01:52:36;2.70;;;2.50;;
6452;SDS011;3259;51.080;13.712;2023-05-07T01:55:26;3.28;;;3.08;;
6452;SDS011;3259;51.080;13.712;2023-05-07T01:58:16;3.70;;;3.10;;
6452;SDS011;3259;51.080;13.712;2023-05-07T02:01:04;3.33;;;3.05;;
6452;SDS011;3259;51.080;13.712;2023-05-07T02:03:53;6.85;;;3.67;;
6452;SDS011;3259;51.080;13.712;2023-05-07T02:06:42;2.92;;;2.55;;
6452;SDS011;3259;51.080;13.712;2023-05-07T02:09:32;2.88;;;2.67;;
6452;SDS011;3259;51.080;13.712;2023-05-07T02:12:21;3.03;;;2.83;;
6452;SDS011;3259;51.080;13.712;2023-05-07T02:15:15;4.55;;;2.90;;
6452;SDS011;3259;51.080;13.712;2023-05-07T02:18:07;4.47;;;2.78;;
6452;SDS011;3259;51.080;13.712;2023-05-07T02:20:58;3.10;;;2.80;;
6452;SDS011;3259;51.080;13.712;2023-05-07T02:23:46;2.97;;;2.65;;
6452;SDS011;3259;51.080;13.712;2023-05-07T02:26:35;3.35;;;3.13;;
6452;SDS011;3259;51.080;13.712;2023-05-07T02:29:23;2.90;;;2.70;;
6452;SDS011;3259;51.080;13.712;2023-05-07T02:32:14;2.60;;;2.40;;
6452;SDS011;3259;51.080;13.712;2023-05-07T02:35:03;3.17;;;2.97;;
6452;SDS011;3259;51.080;13.712;2023-05-07T02:37:52;2.92;;;2.72;;
6452;SDS011;3259;51.080;13.712;2023-05-07T02:40:40;2.95;;;2.55;;
6452;SDS011;3259;51.080;13.712;2023-05-07T02:43:29;2.60;;;2.40;;
6452;SDS011;3259;51.080;13.712;2023-05-07T02:46:18;3.22;;;2.97;;
6452;SDS011;3259;51.080;13.712;2023-05-07T02:49:08;2.55;;;2.30;;
6452;SDS011;3259;51.080;13.712;2023-05-07T02:51:56;3.33;;;2.78;;
6452;SDS011;3259;51.080;13.712;2023-05-07T02:54:45;4.00;;;2.30;;
6452;SDS011;3259;51.080;13.712;2023-05-07T02:57:34;3.97;;;2.42;;
6452;SDS011;3259;51.080;13.712;2023-05-07T03:00:23;2.65;;;2.45;;
6452;SDS011;3259;51.080;13.712;2023-05-07T03:03:12;2.83;;;2.63;;
6452;SDS011;3259;51.080;13.712;2023-05-07T03:06:02;3.20;;;2.13;;
6452;SDS011;3259;51.080;13.712;2023-05-07T03:08:51;2.17;;;2.08;;
6452;SDS011;3259;51.080;13.712;2023-05-07T03:11:42;4.63;;;2.42;;
6452;SDS011;3259;51.080;13.712;2023-05-07T03:14:31;2.28;;;2.17;;
6452;SDS011;3259;51.080;13.712;2023-05-07T03:17:20;2.45;;;2.35;;
6452;SDS011;3259;51.080;13.712;2023-05-07T03:20:09;2.15;;;2.05;;
6452;SDS011;3259;51.080;13.712;2023-05-07T03:23:03;3.38;;;2.15;;
6452;SDS011;3259;51.080;13.712;2023-05-07T03:25:51;2.25;;;2.15;;
6452;SDS011;3259;51.080;13.712;2023-05-07T03:28:40;2.00;;;1.90;;
6452;SDS011;3259;51.080;13.712;2023-05-07T03:31:31;2.22;;;2.13;;
6452;SDS011;3259;51.080;13.712;2023-05-07T03:34:20;2.40;;;2.30;;
6452;SDS011;3259;51.080;13.712;2023-05-07T03:37:09;1.95;;;1.85;;
6452;SDS011;3259;51.080;13.712;2023-05-07T03:39:59;2.63;;;2.42;;
6452;SDS011;3259;51.080;13.712;2023-05-07T03:42:48;2.55;;;2.38;;
6452;SDS011;3259;51.080;13.712;2023-05-07T03:45:37;2.03;;;1.90;;
6452;SDS011;3259;51.080;13.712;2023-05-07T03:48:25;2.13;;;2.03;;
6452;SDS011;3259;51.080;13.712;2023-05-07T03:51:14;1.90;;;1.80;;
6452;SDS011;3259;51.080;13.712;2023-05-07T03:54:03;2.03;;;1.92;;
6452;SDS011;3259;51.080;13.712;2023-05-07T03:56:53;3.85;;;2.13;;
6452;SDS011;3259;51.080;13.712;2023-05-07T03:59:42;2.78;;;1.73;;
6452;SDS011;3259;51.080;13.712;2023-05-07T04:02:31;5.15;;;2.38;;
6452;SDS011;3259;51.080;13.712;2023-05-07T04:05:20;3.95;;;2.38;;
6452;SDS011;3259;51.080;13.712;2023-05-07T04:08:08;2.50;;;2.30;;
6452;SDS011;3259;51.080;13.712;2023-05-07T04:10:57;2.35;;;2.17;;
6452;SDS011;3259;51.080;13.712;2023-05-07T04:13:48;2.35;;;2.22;;
6452;SDS011;3259;51.080;13.712;2023-05-07T04:16:37;2.58;;;1.95;;
6452;SDS011;3259;51.080;13.712;2023-05-07T04:19:26;4.35;;;2.33;;
6452;SDS011;3259;51.080;13.712;2023-05-07T04:22:15;2.92;;;2.40;;
6452;SDS011;3259;51.080;13.712;2023-05-07T04:25:03;2.70;;;2.50;;
6452;SDS011;3259;51.080;13.712;2023-05-07T04:27:52;2.58;;;2.38;;
6452;SDS011;3259;51.080;13.712;2023-05-07T04:30:45;2.50;;;2.30;;
6452;SDS011;3259;51.080;13.712;2023-05-07T04:33:33;2.58;;;2.38;;
6452;SDS011;3259;51.080;13.712;2023-05-07T04:36:22;5.75;;;3.00;;
6452;SDS011;3259;51.080;13.712;2023-05-07T04:39:14;2.90;;;2.58;;
6452;SDS011;3259;51.080;13.712;2023-05-07T04:42:03;5.55;;;2.97;;
6452;SDS011;3259;51.080;13.712;2023-05-07T04:44:55;6.63;;;3.22;;
6452;SDS011;3259;51.080;13.712;2023-05-07T04:47:45;14.07;;;4.13;;
6452;SDS011;3259;51.080;13.712;2023-05-07T04:50:34;12.10;;;3.85;;
6452;SDS011;3259;51.080;13.712;2023-05-07T04:53:24;17.30;;;4.82;;
6452;SDS011;3259;51.080;13.712;2023-05-07T04:56:12;12.45;;;4.90;;
6452;SDS011;3259;51.080;13.712;2023-05-07T04:59:01;15.88;;;4.55;;
6452;SDS011;3259;51.080;13.712;2023-05-07T05:01:51;21.20;;;4.72;;
6452;SDS011;3259;51.080;13.712;2023-05-07T05:04:41;24.55;;;5.75;;
6452;SDS011;3259;51.080;13.712;2023-05-07T05:07:29;14.68;;;4.90;;
6452;SDS011;3259;51.080;13.712;2023-05-07T05:10:18;16.15;;;5.25;;
6452;SDS011;3259;51.080;13.712;2023-05-07T05:13:10;15.98;;;5.28;;
6452;SDS011;3259;51.080;13.712;2023-05-07T05:15:59;9.85;;;4.57;;
6452;SDS011;3259;51.080;13.712;2023-05-07T05:18:50;12.52;;;4.13;;
6452;SDS011;3259;51.080;13.712;2023-05-07T05:21:42;9.45;;;4.60;;
6452;SDS011;3259;51.080;13.712;2023-05-07T05:24:30;13.85;;;4.50;;
6452;SDS011;3259;51.080;13.712;2023-05-07T05:27:19;10.02;;;4.65;;
6452;SDS011;3259;51.080;13.712;2023-05-07T05:30:08;14.57;;;4.85;;
6452;SDS011;3259;51.080;13.712;2023-05-07T05:32:57;12.70;;;5.05;;
6452;SDS011;3259;51.080;13.712;2023-05-07T05:35:46;7.82;;;4.20;;
6452;SDS011;3259;51.080;13.712;2023-05-07T05:38:36;9.02;;;4.43;;
6452;SDS011;3259;51.080;13.712;2023-05-07T05:41:25;7.13;;;3.38;;
6452;SDS011;3259;51.080;13.712;2023-05-07T05:44:13;9.48;;;4.00;;
6452;SDS011;3259;51.080;13.712;2023-05-07T05:47:02;4.50;;;3.97;;
6452;SDS011;3259;51.080;13.712;2023-05-07T05:49:51;8.70;;;3.95;;
6452;SDS011;3259;51.080;13.712;2023-05-07T05:52:40;8.65;;;4.40;;
6452;SDS011;3259;51.080;13.712;2023-05-07T05:55:31;6.05;;;4.30;;
6452;SDS011;3259;51.080;13.712;2023-05-07T05:58:20;8.85;;;4.32;;
6452;SDS011;3259;51.080;13.712;2023-05-07T06:01:08;6.55;;;3.90;;
6452;SDS011;3259;51.080;13.712;2023-05-07T06:03:58;6.00;;;3.50;;
6452;SDS011;3259;51.080;13.712;2023-05-07T06:06:46;6.65;;;4.03;;
6452;SDS011;3259;51.080;13.712;2023-05-07T06:09:35;6.45;;;3.30;;
6452;SDS011;3259;51.080;13.712;2023-05-07T06:12:25;4.68;;;3.42;;
6452;SDS011;3259;51.080;13.712;2023-05-07T06:15:13;5.55;;;3.35;;
6452;SDS011;3259;51.080;13.712;2023-05-07T06:18:02;4.00;;;3.28;;
6452;SDS011;3259;51.080;13.712;2023-05-07T06:20:51;4.35;;;2.67;;
6452;SDS011;3259;51.080;13.712;2023-05-07T06:23:40;5.22;;;2.95;;
6452;SDS011;3259;51.080;13.712;2023-05-07T06:26:29;4.85;;;3.22;;
6452;SDS011;3259;51.080;13.712;2023-05-07T06:29:19;7.22;;;3.25;;
6452;SDS011;3259;51.080;13.712;2023-05-07T06:32:08;4.72;;;3.42;;
6452;SDS011;3259;51.080;13.712;2023-05-07T06:34:57;3.90;;;2.38;;
6452;SDS011;3259;51.080;13.712;2023-05-07T06:37:46;8.00;;;3.53;;
6452;SDS011;3259;51.080;13.712;2023-05-07T06:40:34;6.68;;;2.38;;
6452;SDS011;3259;51.080;13.712;2023-05-07T06:43:23;5.30;;;2.85;;
6452;SDS011;3259;51.080;13.712;2023-05-07T06:46:13;3.38;;;2.28;;
6452;SDS011;3259;51.080;13.712;2023-05-07T06:49:02;4.65;;;3.28;;
6452;SDS011;3259;51.080;13.712;2023-05-07T06:51:52;3.47;;;2.60;;
6452;SDS011;3259;51.080;13.712;2023-05-07T06:54:42;4.30;;;2.40;;
6452;SDS011;3259;51.080;13.712;2023-05-07T06:57:30;3.38;;;2.50;;
6452;SDS011;3259;51.080;13.712;2023-05-07T07:00:19;9.15;;;2.75;;
6452;SDS011;3259;51.080;13.712;2023-05-07T07:03:09;2.53;;;2.30;;
6452;SDS011;3259;51.080;13.712;2023-05-07T07:05:58;13.75;;;2.60;;
6452;SDS011;3259;51.080;13.712;2023-05-07T07:08:48;7.07;;;2.90;;
6452;SDS011;3259;51.080;13.712;2023-05-07T07:11:38;5.90;;;2.17;;
6452;SDS011;3259;51.080;13.712;2023-05-07T07:14:27;3.97;;;2.40;;
6452;SDS011;3259;51.080;13.712;2023-05-07T07:17:16;3.25;;;1.92;;
6452;SDS011;3259;51.080;13.712;2023-05-07T07:20:07;9.85;;;2.53;;
6452;SDS011;3259;51.080;13.712;2023-05-07T07:22:57;2.42;;;2.17;;
6452;SDS011;3259;51.080;13.712;2023-05-07T07:25:46;2.33;;;2.22;;
6452;SDS011;3259;51.080;13.712;2023-05-07T07:28:41;3.58;;;2.30;;
6452;SDS011;3259;51.080;13.712;2023-05-07T07:31:31;2.38;;;2.17;;
6452;SDS011;3259;51.080;13.712;2023-05-07T07:34:20;2.25;;;2.05;;
6452;SDS011;3259;51.080;13.712;2023-05-07T07:37:10;1.73;;;1.63;;
6452;SDS011;3259;51.080;13.712;2023-05-07T07:39:58;3.50;;;2.30;;
6452;SDS011;3259;51.080;13.712;2023-05-07T07:42:50;2.45;;;1.88;;
6452;SDS011;3259;51.080;13.712;2023-05-07T07:45:39;2.03;;;1.65;;
6452;SDS011;3259;51.080;13.712;2023-05-07T07:48:28;2.88;;;2.00;;
6452;SDS011;3259;51.080;13.712;2023-05-07T07:51:17;3.78;;;2.00;;
6452;SDS011;3259;51.080;13.712;2023-05-07T07:54:07;1.88;;;1.77;;
6452;SDS011;3259;51.080;13.712;2023-05-07T07:56:55;10.27;;;2.22;;
6452;SDS011;3259;51.080;13.712;2023-05-07T07:59:44;5.20;;;1.65;;
6452;SDS011;3259;51.080;13.712;2023-05-07T08:02:33;1.60;;;1.52;;
6452;SDS011;3259;51.080;13.712;2023-05-07T08:05:22;1.95;;;1.80;;
6452;SDS011;3259;51.080;13.712;2023-05-07T08:08:11;1.42;;;1.27;;
6452;SDS011;3259;51.080;13.712;2023-05-07T08:11:01;1.70;;;1.50;;
6452;SDS011;3259;51.080;13.712;2023-05-07T08:13:50;3.70;;;1.17;;
6452;SDS011;3259;51.080;13.712;2023-05-07T08:16:39;2.15;;;1.52;;
6452;SDS011;3259;51.080;13.712;2023-05-07T08:19:28;1.33;;;1.23;;
6452;SDS011;3259;51.080;13.712;2023-05-07T08:22:16;1.80;;;1.60;;
6452;SDS011;3259;51.080;13.712;2023-05-07T08:25:05;1.60;;;1.27;;
6452;SDS011;3259;51.080;13.712;2023-05-07T08:27:55;3.17;;;1.15;;
6452;SDS011;3259;51.080;13.712;2023-05-07T08:30:44;0.95;;;0.95;;
6452;SDS011;3259;51.080;13.712;2023-05-07T08:33:33;1.80;;;1.23;;
6452;SDS011;3259;51.080;13.712;2023-05-07T08:36:22;1.95;;;1.60;;
6452;SDS011;3259;51.080;13.712;2023-05-07T08:39:10;1.77;;;1.50;;
6452;SDS011;3259;51.080;13.712;2023-05-07T08:42:00;1.30;;;1.20;;
6452;SDS011;3259;51.080;13.712;2023-05-07T08:44:53;1.35;;;1.35;;
6452;SDS011;3259;51.080;13.712;2023-05-07T08:47:46;1.13;;;1.13;;
6452;SDS011;3259;51.080;13.712;2023-05-07T08:50:39;2.50;;;1.40;;
6452;SDS011;3259;51.080;13.712;2023-05-07T08:53:29;1.10;;;1.02;;
6452;SDS011;3259;51.080;13.712;2023-05-07T08:56:18;2.42;;;1.42;;
6452;SDS011;3259;51.080;13.712;2023-05-07T08:59:08;4.13;;;1.60;;
6452;SDS011;3259;51.080;13.712;2023-05-07T09:01:59;1.33;;;1.33;;
6452;SDS011;3259;51.080;13.712;2023-05-07T09:04:48;13.77;;;2.63;;
6452;SDS011;3259;51.080;13.712;2023-05-07T09:07:37;28.13;;;3.90;;
6452;SDS011;3259;51.080;13.712;2023-05-07T09:10:26;25.63;;;3.58;;
6452;SDS011;3259;51.080;13.712;2023-05-07T09:13:14;27.02;;;4.35;;
6452;SDS011;3259;51.080;13.712;2023-05-07T09:16:09;68.80;;;6.05;;
6452;SDS011;3259;51.080;13.712;2023-05-07T09:19:00;55.33;;;5.60;;
6452;SDS011;3259;51.080;13.712;2023-05-07T09:21:49;89.07;;;8.15;;
6452;SDS011;3259;51.080;13.712;2023-05-07T09:24:38;40.78;;;3.70;;
6452;SDS011;3259;51.080;13.712;2023-05-07T09:27:27;20.75;;;3.47;;
6452;SDS011;3259;51.080;13.712;2023-05-07T09:30:16;16.55;;;2.97;;
6452;SDS011;3259;51.080;13.712;2023-05-07T09:33:06;6.20;;;2.80;;
6452;SDS011;3259;51.080;13.712;2023-05-07T09:35:56;3.75;;;2.63;;
6452;SDS011;3259;51.080;13.712;2023-05-07T09:38:44;5.75;;;2.95;;
6452;SDS011;3259;51.080;13.712;2023-05-07T09:41:36;8.95;;;2.90;;
6452;SDS011;3259;51.080;13.712;2023-05-07T09:44:32;6.82;;;3.03;;
6452;SDS011;3259;51.080;13.712;2023-05-07T09:47:20;3.90;;;2.95;;
6452;SDS011;3259;51.080;13.712;2023-05-07T09:50:12;6.30;;;2.60;;
6452;SDS011;3259;51.080;13.712;2023-05-07T09:53:05;3.10;;;2.55;;
6452;SDS011;3259;51.080;13.712;2023-05-07T09:55:57;4.15;;;2.60;;
6452;SDS011;3259;51.080;13.712;2023-05-07T09:58:50;3.50;;;1.80;;
6452;SDS011;3259;51.080;13.712;2023-05-07T10:01:42;3.33;;;2.40;;
6452;SDS011;3259;51.080;13.712;2023-05-07T10:04:32;2.78;;;2.45;;
6452;SDS011;3259;51.080;13.712;2023-05-07T10:07:20;3.63;;;2.65;;
6452;SDS011;3259;51.080;13.712;2023-05-07T10:10:13;2.65;;;2.38;;
6452;SDS011;3259;51.080;13.712;2023-05-07T10:13:03;3.05;;;2.63;;
6452;SDS011;3259;51.080;13.712;2023-05-07T10:15:57;2.53;;;2.33;;
6452;SDS011;3259;51.080;13.712;2023-05-07T10:18:46;2.78;;;2.55;;
6452;SDS011;3259;51.080;13.712;2023-05-07T10:21:37;2.10;;;1.95;;
6452;SDS011;3259;51.080;13.712;2023-05-07T10:24:29;2.75;;;2.50;;
6452;SDS011;3259;51.080;13.712;2023-05-07T10:27:21;2.55;;;2.35;;
6452;SDS011;3259;51.080;13.712;2023-05-07T10:30:15;2.35;;;2.15;;
6452;SDS011;3259;51.080;13.712;2023-05-07T10:33:18;2.40;;;2.20;;
6452;SDS011;3259;51.080;13.712;2023-05-07T10:36:10;6.63;;;3.03;;
6452;SDS011;3259;51.080;13.712;2023-05-07T10:38:59;2.42;;;2.30;;
6452;SDS011;3259;51.080;13.712;2023-05-07T10:41:48;2.25;;;2.15;;
6452;SDS011;3259;51.080;13.712;2023-05-07T10:44:38;2.63;;;2.42;;
6452;SDS011;3259;51.080;13.712;2023-05-07T10:47:27;2.63;;;2.42;;
6452;SDS011;3259;51.080;13.712;2023-05-07T10:50:22;2.80;;;2.60;;
6452;SDS011;3259;51.080;13.712;2023-05-07T10:56:24;2.75;;;2.65;;
6452;SDS011;3259;51.080;13.712;2023-05-07T11:06:11;2.25;;;2.15;;
6452;SDS011;3259;51.080;13.712;2023-05-07T11:09:00;2.50;;;2.30;;
6452;SDS011;3259;51.080;13.712;2023-05-07T11:11:50;2.17;;;2.08;;
6452;SDS011;3259;51.080;13.712;2023-05-07T11:14:45;2.47;;;2.28;;
6452;SDS011;3259;51.080;13.712;2023-05-07T11:17:34;5.90;;;2.88;;
6452;SDS011;3259;51.080;13.712;2023-05-07T11:20:46;2.35;;;2.25;;
6452;SDS011;3259;51.080;13.712;2023-05-07T11:26:55;2.08;;;1.98;;
6452;SDS011;3259;51.080;13.712;2023-05-07T11:29:46;2.13;;;2.03;;
6452;SDS011;3259;51.080;13.712;2023-05-07T11:32:35;2.45;;;2.25;;
6452;SDS011;3259;51.080;13.712;2023-05-07T11:35:24;2.60;;;2.17;;
6452;SDS011;3259;51.080;13.712;2023-05-07T11:38:14;2.25;;;1.98;;
6452;SDS011;3259;51.080;13.712;2023-05-07T11:41:04;3.28;;;2.50;;
6452;SDS011;3259;51.080;13.712;2023-05-07T11:43:54;1.98;;;1.88;;
6452;SDS011;3259;51.080;13.712;2023-05-07T11:46:44;3.78;;;2.55;;
6452;SDS011;3259;51.080;13.712;2023-05-07T11:49:34;2.28;;;2.17;;
6452;SDS011;3259;51.080;13.712;2023-05-07T11:52:23;2.13;;;2.03;;
6452;SDS011;3259;51.080;13.712;2023-05-07T11:55:13;2.35;;;2.22;;
6452;SDS011;3259;51.080;13.712;2023-05-07T11:58:06;2.13;;;1.92;;
6452;SDS011;3259;51.080;13.712;2023-05-07T12:00:56;1.92;;;1.83;;
6452;SDS011;3259;51.080;13.712;2023-05-07T12:03:45;2.17;;;2.08;;
6452;SDS011;3259;51.080;13.712;2023-05-07T12:06:36;2.08;;;1.98;;
6452;SDS011;3259;51.080;13.712;2023-05-07T12:09:25;3.50;;;1.55;;
6452;SDS011;3259;51.080;13.712;2023-05-07T12:12:15;1.70;;;1.60;;
6452;SDS011;3259;51.080;13.712;2023-05-07T12:15:05;2.80;;;2.60;;
6452;SDS011;3259;51.080;13.712;2023-05-07T12:17:54;2.97;;;2.67;;
6452;SDS011;3259;51.080;13.712;2023-05-07T12:20:43;1.90;;;1.80;;
6452;SDS011;3259;51.080;13.712;2023-05-07T12:23:33;2.20;;;2.10;;
6452;SDS011;3259;51.080;13.712;2023-05-07T12:26:22;4.45;;;1.95;;
6452;SDS011;3259;51.080;13.712;2023-05-07T12:29:12;2.60;;;2.40;;
6452;SDS011;3259;51.080;13.712;2023-05-07T12:32:01;2.58;;;1.90;;
6452;SDS011;3259;51.080;13.712;2023-05-07T12:34:54;2.20;;;2.10;;
6452;SDS011;3259;51.080;13.712;2023-05-07T12:37:42;3.60;;;2.33;;
6452;SDS011;3259;51.080;13.712;2023-05-07T12:40:37;2.17;;;2.08;;
6452;SDS011;3259;51.080;13.712;2023-05-07T12:43:28;4.07;;;1.98;;
6452;SDS011;3259;51.080;13.712;2023-05-07T12:46:21;2.35;;;2.22;;
6452;SDS011;3259;51.080;13.712;2023-05-07T12:49:10;2.60;;;2.40;;
6452;SDS011;3259;51.080;13.712;2023-05-07T12:51:59;3.78;;;2.10;;
6452;SDS011;3259;51.080;13.712;2023-05-07T12:54:47;2.35;;;2.25;;
6452;SDS011;3259;51.080;13.712;2023-05-07T12:57:39;1.98;;;1.88;;
6452;SDS011;3259;51.080;13.712;2023-05-07T13:00:35;2.30;;;2.10;;
6452;SDS011;3259;51.080;13.712;2023-05-07T13:03:26;2.22;;;2.00;;
6452;SDS011;3259;51.080;13.712;2023-05-07T13:06:16;2.08;;;1.88;;
6452;SDS011;3259;51.080;13.712;2023-05-07T13:09:05;2.92;;;2.00;;
6452;SDS011;3259;51.080;13.712;2023-05-07T13:11:53;3.03;;;2.50;;
6452;SDS011;3259;51.080;13.712;2023-05-07T13:14:42;1.90;;;1.80;;
6452;SDS011;3259;51.080;13.712;2023-05-07T13:17:31;3.15;;;2.03;;
6452;SDS011;3259;51.080;13.712;2023-05-07T13:20:22;3.40;;;2.13;;
6452;SDS011;3259;51.080;13.712;2023-05-07T13:23:11;2.88;;;2.10;;
6452;SDS011;3259;51.080;13.712;2023-05-07T13:26:01;2.30;;;2.10;;
6452;SDS011;3259;51.080;13.712;2023-05-07T13:29:09;2.15;;;2.05;;
6452;SDS011;3259;51.080;13.712;2023-05-07T13:31:58;2.55;;;2.38;;
6452;SDS011;3259;51.080;13.712;2023-05-07T13:34:47;3.28;;;1.90;;
6452;SDS011;3259;51.080;13.712;2023-05-07T13:37:37;1.48;;;1.38;;
6452;SDS011;3259;51.080;13.712;2023-05-07T13:40:26;1.23;;;1.13;;
6452;SDS011;3259;51.080;13.712;2023-05-07T13:43:14;2.58;;;1.92;;
6452;SDS011;3259;51.080;13.712;2023-05-07T13:46:04;1.50;;;1.50;;
6452;SDS011;3259;51.080;13.712;2023-05-07T13:48:54;1.50;;;1.45;;
6452;SDS011;3259;51.080;13.712;2023-05-07T13:51:43;1.67;;;1.63;;
6452;SDS011;3259;51.080;13.712;2023-05-07T13:54:33;1.70;;;1.60;;
6452;SDS011;3259;51.080;13.712;2023-05-07T13:57:22;1.95;;;1.67;;
6452;SDS011;3259;51.080;13.712;2023-05-07T14:00:11;1.70;;;1.60;;
6452;SDS011;3259;51.080;13.712;2023-05-07T14:03:01;1.85;;;1.75;;
6452;SDS011;3259;51.080;13.712;2023-05-07T14:05:53;1.33;;;1.15;;
6452;SDS011;3259;51.080;13.712;2023-05-07T14:08:44;2.33;;;1.88;;
6452;SDS011;3259;51.080;13.712;2023-05-07T14:11:34;1.55;;;1.50;;
6452;SDS011;3259;51.080;13.712;2023-05-07T14:14:23;1.50;;;1.50;;
6452;SDS011;3259;51.080;13.712;2023-05-07T14:17:12;1.30;;;1.30;;
6452;SDS011;3259;51.080;13.712;2023-05-07T14:20:01;1.48;;;1.45;;
6452;SDS011;3259;51.080;13.712;2023-05-07T14:22:50;1.33;;;1.23;;
6452;SDS011;3259;51.080;13.712;2023-05-07T14:25:43;1.40;;;1.40;;
6452;SDS011;3259;51.080;13.712;2023-05-07T14:28:36;1.40;;;1.40;;
6452;SDS011;3259;51.080;13.712;2023-05-07T14:31:26;1.73;;;1.63;;
6452;SDS011;3259;51.080;13.712;2023-05-07T14:34:14;1.63;;;1.52;;
6452;SDS011;3259;51.080;13.712;2023-05-07T14:37:03;1.45;;;1.45;;
6452;SDS011;3259;51.080;13.712;2023-05-07T14:39:52;1.17;;;1.15;;
6452;SDS011;3259;51.080;13.712;2023-05-07T14:42:42;1.38;;;1.38;;
6452;SDS011;3259;51.080;13.712;2023-05-07T14:45:32;1.40;;;1.25;;
6452;SDS011;3259;51.080;13.712;2023-05-07T14:48:21;1.48;;;1.38;;
6452;SDS011;3259;51.080;13.712;2023-05-07T14:51:10;3.38;;;1.88;;
6452;SDS011;3259;51.080;13.712;2023-05-07T14:53:58;1.63;;;1.40;;
6452;SDS011;3259;51.080;13.712;2023-05-07T14:56:50;2.17;;;1.27;;
6452;SDS011;3259;51.080;13.712;2023-05-07T14:59:39;1.38;;;1.35;;
6452;SDS011;3259;51.080;13.712;2023-05-07T15:02:30;2.28;;;1.20;;
6452;SDS011;3259;51.080;13.712;2023-05-07T15:05:19;4.50;;;1.67;;
6452;SDS011;3259;51.080;13.712;2023-05-07T15:08:08;2.40;;;1.45;;
6452;SDS011;3259;51.080;13.712;2023-05-07T15:10:58;3.03;;;1.65;;
6452;SDS011;3259;51.080;13.712;2023-05-07T15:13:47;3.90;;;1.25;;
6452;SDS011;3259;51.080;13.712;2023-05-07T15:16:35;2.03;;;1.80;;
6452;SDS011;3259;51.080;13.712;2023-05-07T15:19:26;1.38;;;1.27;;
6452;SDS011;3259;51.080;13.712;2023-05-07T15:22:16;1.80;;;1.35;;
6452;SDS011;3259;51.080;13.712;2023-05-07T15:25:05;1.67;;;1.60;;
6452;SDS011;3259;51.080;13.712;2023-05-07T15:27:56;1.50;;;1.45;;
6452;SDS011;3259;51.080;13.712;2023-05-07T15:30:45;2.05;;;1.58;;
6452;SDS011;3259;51.080;13.712;2023-05-07T15:33:33;2.22;;;2.00;;
6452;SDS011;3259;51.080;13.712;2023-05-07T15:36:24;1.45;;;1.45;;
6452;SDS011;3259;51.080;13.712;2023-05-07T15:39:13;1.50;;;1.50;;
6452;SDS011;3259;51.080;13.712;2023-05-07T15:42:02;2.25;;;1.50;;
6452;SDS011;3259;51.080;13.712;2023-05-07T15:44:51;1.40;;;1.40;;
6452;SDS011;3259;51.080;13.712;2023-05-07T15:47:40;2.45;;;2.25;;
6452;SDS011;3259;51.080;13.712;2023-05-07T15:50:29;1.77;;;1.67;;
6452;SDS011;3259;51.080;13.712;2023-05-07T15:53:19;2.45;;;2.25;;
6452;SDS011;3259;51.080;13.712;2023-05-07T15:56:08;2.22;;;2.13;;
6452;SDS011;3259;51.080;13.712;2023-05-07T15:58:57;2.65;;;1.98;;
6452;SDS011;3259;51.080;13.712;2023-05-07T16:01:46;2.53;;;1.60;;
6452;SDS011;3259;51.080;13.712;2023-05-07T16:04:35;1.92;;;1.83;;
6452;SDS011;3259;51.080;13.712;2023-05-07T16:07:24;2.03;;;1.90;;
6452;SDS011;3259;51.080;13.712;2023-05-07T16:10:14;6.75;;;1.98;;
6452;SDS011;3259;51.080;13.712;2023-05-07T16:13:02;2.22;;;1.80;;
6452;SDS011;3259;51.080;13.712;2023-05-07T16:15:54;3.78;;;2.08;;
6452;SDS011;3259;51.080;13.712;2023-05-07T16:18:44;1.88;;;1.73;;
6452;SDS011;3259;51.080;13.712;2023-05-07T16:21:32;2.30;;;1.35;;
6452;SDS011;3259;51.080;13.712;2023-05-07T16:24:21;3.00;;;2.10;;
6452;SDS011;3259;51.080;13.712;2023-05-07T16:27:11;5.28;;;2.40;;
6452;SDS011;3259;51.080;13.712;2023-05-07T16:30:00;1.80;;;1.70;;
6452;SDS011;3259;51.080;13.712;2023-05-07T16:32:49;3.65;;;1.60;;
6452;SDS011;3259;51.080;13.712;2023-05-07T16:35:37;2.42;;;2.00;;
6452;SDS011;3259;51.080;13.712;2023-05-07T16:38:26;3.53;;;1.77;;
6452;SDS011;3259;51.080;13.712;2023-05-07T16:41:21;7.05;;;1.88;;
6452;SDS011;3259;51.080;13.712;2023-05-07T16:44:11;1.85;;;1.75;;
6452;SDS011;3259;51.080;13.712;2023-05-07T16:46:59;2.85;;;1.58;;
6452;SDS011;3259;51.080;13.712;2023-05-07T16:49:49;1.70;;;1.60;;
6452;SDS011;3259;51.080;13.712;2023-05-07T16:52:37;4.15;;;1.95;;
6452;SDS011;3259;51.080;13.712;2023-05-07T16:55:26;10.77;;;3.95;;
6452;SDS011;3259;51.080;13.712;2023-05-07T16:58:16;8.48;;;4.93;;
6452;SDS011;3259;51.080;13.712;2023-05-07T17:01:06;7.93;;;3.70;;
6452;SDS011;3259;51.080;13.712;2023-05-07T17:03:57;10.50;;;7.15;;
6452;SDS011;3259;51.080;13.712;2023-05-07T17:06:45;17.02;;;9.88;;
6452;SDS011;3259;51.080;13.712;2023-05-07T17:09:34;13.88;;;9.90;;
6452;SDS011;3259;51.080;13.712;2023-05-07T17:12:23;12.82;;;8.70;;
6452;SDS011;3259;51.080;13.712;2023-05-07T17:15:12;11.75;;;7.60;;
6452;SDS011;3259;51.080;13.712;2023-05-07T17:18:02;9.30;;;6.65;;
6452;SDS011;3259;51.080;13.712;2023-05-07T17:20:51;6.78;;;5.80;;
6452;SDS011;3259;51.080;13.712;2023-05-07T17:23:40;9.32;;;5.18;;
6452;SDS011;3259;51.080;13.712;2023-05-07T17:26:28;8.25;;;5.10;;
6452;SDS011;3259;51.080;13.712;2023-05-07T17:29:20;5.97;;;4.50;;
6452;SDS011;3259;51.080;13.712;2023-05-07T17:32:09;11.07;;;4.43;;
6452;SDS011;3259;51.080;13.712;2023-05-07T17:34:59;6.93;;;4.70;;